createdAt,value
2019-05-25T00:00:37.818Z,96862.48
2019-05-25T00:03:05.370Z,96859.55
2019-05-25T00:05:33.402Z,96857.95
2019-05-25T00:08:00.876Z,96862.39
2019-05-25T00:10:28.363Z,96859.64
2019-05-25T00:12:55.818Z,96860.09
2019-05-25T00:15:23.655Z,96859.72
2019-05-25T00:17:51.339Z,96857.55
2019-05-25T00:20:18.815Z,96852.80
2019-05-25T00:22:46.271Z,96861.45
2019-05-25T00:25:13.912Z,96854.39
2019-05-25T00:27:41.373Z,96851.51
2019-05-25T00:30:08.919Z,96850.41
2019-05-25T00:32:36.386Z,96853.22
2019-05-25T00:35:03.901Z,96846.62
2019-05-25T00:37:31.404Z,96844.63
2019-05-25T00:39:58.859Z,96852.55
2019-05-25T00:42:26.389Z,96849.72
2019-05-25T00:44:53.872Z,96844.55
2019-05-25T00:47:21.350Z,96850.42
2019-05-25T00:49:48.948Z,96842.66
2019-05-25T00:52:16.397Z,96844.67
2019-05-25T00:54:43.856Z,96845.52
2019-05-25T00:57:11.314Z,96843.13
2019-05-25T00:59:38.903Z,96843.20
2019-05-25T01:02:06.359Z,96845.22
2019-05-25T01:04:33.851Z,96844.80
2019-05-25T01:07:01.302Z,96844.22
2019-05-25T01:09:28.772Z,96848.83
2019-05-25T01:11:56.226Z,96850.98
2019-05-25T01:14:23.711Z,96848.40
2019-05-25T01:16:51.363Z,96839.89
2019-05-25T01:19:18.898Z,96842.02
2019-05-25T01:21:46.355Z,96844.64
2019-05-25T01:24:13.888Z,96845.16
2019-05-25T01:26:41.457Z,96844.95
2019-05-25T01:29:08.978Z,96841.86
2019-05-25T01:31:36.436Z,96839.59
2019-05-25T01:36:37.842Z,96838.97
2019-05-25T01:39:05.294Z,96845.64
2019-05-25T01:41:32.751Z,96841.66
2019-05-25T01:44:01.225Z,96845.42
2019-05-25T01:46:28.680Z,96844.71
2019-05-25T01:48:56.173Z,96852.60
2019-05-25T01:51:23.658Z,96847.52
2019-05-25T01:53:51.148Z,96848.83
2019-05-25T01:56:18.621Z,96856.72
2019-05-25T01:58:46.098Z,96859.66
2019-05-25T02:01:13.705Z,96863.18
2019-05-25T02:03:41.183Z,96860.80
2019-05-25T02:06:08.655Z,96856.41
2019-05-25T02:08:36.114Z,96857.66
2019-05-25T02:11:03.634Z,96859.26
2019-05-25T02:13:31.102Z,96854.13
2019-05-25T02:15:58.547Z,96856.61
2019-05-25T02:18:26.334Z,96859.19
2019-05-25T02:20:53.797Z,96852.42
2019-05-25T02:23:21.253Z,96853.14
2019-05-25T02:25:48.762Z,96851.31
2019-05-25T02:28:16.255Z,96853.70
2019-05-25T02:30:43.786Z,96852.94
2019-05-25T02:33:11.276Z,96845.31
2019-05-25T02:35:38.737Z,96848.05
2019-05-25T02:38:06.243Z,96851.20
2019-05-25T02:40:33.715Z,96856.43
2019-05-25T02:43:01.200Z,96853.78
2019-05-25T02:45:28.682Z,96858.80
2019-05-25T02:47:56.193Z,96845.98
2019-05-25T02:50:23.669Z,96854.41
2019-05-25T02:52:51.142Z,96847.70
2019-05-25T02:55:33.751Z,96858.08
2019-05-25T02:57:48.116Z,96853.64
2019-05-25T03:00:15.968Z,96854.27
2019-05-25T03:02:43.545Z,96856.09
2019-05-25T03:05:11.858Z,96853.86
2019-05-25T03:07:39.421Z,96854.95
2019-05-25T03:10:06.924Z,96847.94
2019-05-25T03:12:34.427Z,96851.63
2019-05-25T03:15:02.095Z,96853.37
2019-05-25T03:17:29.522Z,96856.09
2019-05-25T03:19:57.135Z,96863.95
2019-05-25T03:22:24.590Z,96864.37
2019-05-25T03:24:52.268Z,96871.31
2019-05-25T03:27:19.792Z,96865.85
2019-05-25T03:29:47.245Z,96869.48
2019-05-25T03:32:14.848Z,96869.02
2019-05-25T03:34:42.316Z,96871.47
2019-05-25T03:37:09.799Z,96874.77
2019-05-25T03:39:37.266Z,96871.15
2019-05-25T03:42:04.742Z,96872.30
2019-05-25T03:44:32.216Z,96875.60
2019-05-25T03:46:59.710Z,96871.68
2019-05-25T03:49:27.197Z,96879.08
2019-05-25T03:51:54.728Z,96877.39
2019-05-25T03:54:22.209Z,96878.25
2019-05-25T03:56:49.737Z,96888.17
2019-05-25T03:59:17.253Z,96892.14
2019-05-25T04:01:44.761Z,96892.63
2019-05-25T04:04:12.244Z,96893.91
2019-05-25T04:06:39.804Z,96901.73
2019-05-25T04:09:07.497Z,96903.64
2019-05-25T04:11:34.959Z,96908.52
2019-05-25T04:14:02.517Z,96906.73
2019-05-25T04:16:29.990Z,96903.70
2019-05-25T04:18:57.438Z,96915.20
2019-05-25T04:21:25.192Z,96913.87
2019-05-25T04:23:52.678Z,96911.11
2019-05-25T04:26:22.829Z,96913.55
2019-05-25T04:28:47.695Z,96916.81
2019-05-25T04:31:15.731Z,96912.22
2019-05-25T04:33:43.175Z,96923.14
2019-05-25T04:36:10.683Z,96920.00
2019-05-25T04:38:38.217Z,96922.02
2019-05-25T04:41:05.734Z,96926.48
2019-05-25T04:43:33.184Z,96929.70
2019-05-25T04:46:00.694Z,96930.74
2019-05-25T04:48:28.197Z,96932.89
2019-05-25T04:50:55.717Z,96933.05
2019-05-25T04:53:23.183Z,96936.02
2019-05-25T04:55:50.674Z,96929.20
2019-05-25T04:58:18.166Z,96929.77
2019-05-25T05:00:45.681Z,96931.52
2019-05-25T05:03:13.140Z,96931.64
2019-05-25T05:05:40.627Z,96928.00
2019-05-25T05:08:08.206Z,96924.47
2019-05-25T05:10:35.664Z,96926.75
2019-05-25T05:13:03.198Z,96925.64
2019-05-25T05:15:30.717Z,96932.30
2019-05-25T05:17:58.188Z,96940.71
2019-05-25T05:20:25.677Z,96940.73
2019-05-25T05:22:53.535Z,96941.80
2019-05-25T05:25:21.064Z,96946.50
2019-05-25T05:27:48.511Z,96942.08
2019-05-25T05:30:16.006Z,96946.32
2019-05-25T05:32:43.491Z,96944.58
2019-05-25T05:35:10.947Z,96940.47
2019-05-25T05:37:38.396Z,96937.11
2019-05-25T05:40:07.481Z,96943.23
2019-05-25T05:42:34.950Z,96936.31
2019-05-25T05:45:02.440Z,96952.08
2019-05-25T05:47:29.941Z,96945.87
2019-05-25T05:49:57.408Z,96948.91
2019-05-25T05:52:24.910Z,96947.93
2019-05-25T05:54:52.436Z,96945.87
2019-05-25T05:57:19.912Z,96949.49
2019-05-25T05:59:47.390Z,96943.61
2019-05-25T06:02:14.908Z,96951.48
2019-05-25T06:04:43.035Z,96949.06
2019-05-25T06:07:10.547Z,96956.13
2019-05-25T06:09:38.013Z,96957.73
2019-05-25T06:12:05.496Z,96956.83
2019-05-25T06:14:33.811Z,96960.03
2019-05-25T06:17:02.144Z,96958.53
2019-05-25T06:19:29.672Z,96959.92
2019-05-25T06:21:57.145Z,96958.09
2019-05-25T06:24:24.754Z,96962.44
2019-05-25T06:26:52.202Z,96962.35
2019-05-25T06:29:19.925Z,96964.17
2019-05-25T06:31:47.563Z,96971.80
2019-05-25T06:34:15.062Z,96969.56
2019-05-25T06:36:42.522Z,96972.52
2019-05-25T06:39:10.005Z,96971.48
2019-05-25T06:41:37.457Z,96977.78
2019-05-25T06:44:04.932Z,96974.36
2019-05-25T06:46:32.398Z,96983.49
2019-05-25T06:48:59.884Z,96971.72
2019-05-25T06:51:27.334Z,96980.68
2019-05-25T06:53:54.863Z,96980.38
2019-05-25T06:56:22.494Z,96988.30
2019-05-25T06:58:49.991Z,96982.58
2019-05-25T07:01:17.471Z,96983.73
2019-05-25T07:03:45.002Z,96981.36
2019-05-25T07:06:12.512Z,96979.69
2019-05-25T07:08:40.027Z,96982.89
2019-05-25T07:11:07.497Z,96988.13
2019-05-25T07:13:35.109Z,96987.47
2019-05-25T07:16:02.772Z,96981.17
2019-05-25T07:18:30.286Z,96989.23
2019-05-25T07:20:58.214Z,96992.30
2019-05-25T07:23:25.690Z,96988.48
2019-05-25T07:25:53.342Z,96992.22
2019-05-25T07:28:20.864Z,96992.72
2019-05-25T07:30:48.328Z,96992.38
2019-05-25T07:33:15.830Z,96995.20
2019-05-25T07:35:43.323Z,97002.67
2019-05-25T07:38:10.871Z,96994.91
2019-05-25T07:40:38.341Z,96990.19
2019-05-25T07:43:05.859Z,96985.09
2019-05-25T07:45:33.552Z,96988.39
2019-05-25T07:48:01.076Z,96990.94
2019-05-25T07:50:28.605Z,96993.65
2019-05-25T07:52:56.071Z,96989.54
2019-05-25T07:55:23.537Z,96996.76
2019-05-25T07:57:51.006Z,96992.64
2019-05-25T08:00:18.591Z,96986.81
2019-05-25T08:02:46.240Z,96994.27
2019-05-25T08:05:13.861Z,96986.16
2019-05-25T08:07:41.795Z,96989.23
2019-05-25T08:10:09.295Z,96987.88
2019-05-25T08:12:36.289Z,96990.78
2019-05-25T08:15:03.902Z,96989.36
2019-05-25T08:17:32.279Z,96989.00
2019-05-25T08:19:59.737Z,96989.31
2019-05-25T08:22:27.230Z,96993.30
2019-05-25T08:24:54.697Z,96987.29
2019-05-25T08:27:23.188Z,96982.91
2019-05-25T08:29:50.677Z,96988.80
2019-05-25T08:32:18.132Z,96989.50
2019-05-25T08:34:45.617Z,96987.48
2019-05-25T08:37:13.069Z,96978.98
2019-05-25T08:39:40.533Z,96990.69
2019-05-25T08:42:08.090Z,96983.70
2019-05-25T08:44:35.565Z,96985.60
2019-05-25T08:47:03.095Z,96981.95
2019-05-25T08:49:30.541Z,96989.30
2019-05-25T08:51:58.050Z,96990.92
2019-05-25T08:54:25.524Z,96996.53
2019-05-25T08:56:53.155Z,96994.90
2019-05-25T08:59:20.655Z,96987.94
2019-05-25T09:01:48.225Z,96985.75
2019-05-25T09:04:15.678Z,96994.64
2019-05-25T09:06:43.169Z,96985.33
2019-05-25T09:09:10.773Z,96988.07
2019-05-25T09:11:38.280Z,96987.83
2019-05-25T09:14:05.788Z,96983.53
2019-05-25T09:16:33.234Z,96993.20
2019-05-25T09:19:00.719Z,96991.45
2019-05-25T09:21:28.227Z,96993.00
2019-05-25T09:23:55.715Z,96986.45
2019-05-25T09:26:23.250Z,96985.38
2019-05-25T09:29:03.481Z,96984.34
2019-05-25T09:31:18.387Z,96983.05
2019-05-25T09:33:45.907Z,96984.63
2019-05-25T09:36:13.388Z,96988.36
2019-05-25T09:38:43.279Z,96986.95
2019-05-25T09:41:08.582Z,96994.19
2019-05-25T09:43:36.051Z,96997.08
2019-05-25T09:46:03.612Z,96992.53
2019-05-25T09:48:31.090Z,96989.63
2019-05-25T09:50:58.709Z,96987.98
2019-05-25T09:53:26.226Z,96988.30
2019-05-25T09:55:53.789Z,96994.39
2019-05-25T09:58:21.251Z,96992.17
2019-05-25T10:00:48.710Z,96986.08
2019-05-25T10:03:16.182Z,96993.59
2019-05-25T10:05:43.676Z,96996.17
2019-05-25T10:08:11.187Z,96992.85
2019-05-25T10:10:38.634Z,96996.69
2019-05-25T10:13:06.092Z,96997.89
2019-05-25T10:15:33.629Z,96995.10
2019-05-25T10:18:01.071Z,96989.81
2019-05-25T10:20:29.310Z,96986.95
2019-05-25T10:22:56.878Z,96983.11
2019-05-25T10:25:24.399Z,96983.95
2019-05-25T10:27:51.390Z,96981.97
2019-05-25T10:30:18.978Z,96979.89
2019-05-25T10:32:46.474Z,96979.19
2019-05-25T10:35:13.995Z,96979.55
2019-05-25T10:37:41.520Z,96972.58
2019-05-25T10:40:08.997Z,96967.55
2019-05-25T10:42:36.502Z,96967.35
2019-05-25T10:45:04.912Z,96976.41
2019-05-25T10:47:32.379Z,96973.69
2019-05-25T10:49:59.875Z,96959.92
2019-05-25T10:52:27.353Z,96965.25
2019-05-25T10:54:54.867Z,96965.66
2019-05-25T10:57:22.339Z,96959.02
2019-05-25T10:59:52.819Z,96963.96
2019-05-25T11:02:17.325Z,96965.94
2019-05-25T11:04:44.808Z,96954.63
2019-05-25T11:07:12.386Z,96950.81
2019-05-25T11:09:39.958Z,96953.94
2019-05-25T11:12:07.428Z,96946.30
2019-05-25T11:14:34.945Z,96943.13
2019-05-25T11:17:02.396Z,96942.78
2019-05-25T11:19:30.050Z,96948.27
2019-05-25T11:21:57.509Z,96951.73
2019-05-25T11:24:25.008Z,96948.66
2019-05-25T11:26:52.531Z,96950.53
2019-05-25T11:29:20.124Z,96941.59
2019-05-25T11:31:55.289Z,96939.98
2019-05-25T11:34:15.296Z,96938.17
2019-05-25T11:36:43.046Z,96932.14
2019-05-25T11:39:10.730Z,96938.54
2019-05-25T11:41:38.224Z,96937.27
2019-05-25T11:44:05.750Z,96935.23
2019-05-25T11:46:33.910Z,96934.50
2019-05-25T11:49:01.507Z,96923.28
2019-05-25T11:51:29.033Z,96929.52
2019-05-25T11:53:56.498Z,96925.67
2019-05-25T11:56:23.991Z,96923.06
2019-05-25T11:58:51.593Z,96924.00
2019-05-25T12:01:19.046Z,96928.13
2019-05-25T12:03:46.532Z,96929.23
2019-05-25T12:06:13.991Z,96925.73
2019-05-25T12:08:41.512Z,96925.53
2019-05-25T12:11:09.076Z,96922.03
2019-05-25T12:13:36.867Z,96923.38
2019-05-25T12:16:04.388Z,96925.05
2019-05-25T12:18:32.048Z,96915.39
2019-05-25T12:20:59.532Z,96920.47
2019-05-25T12:23:27.002Z,96918.39
2019-05-25T12:25:54.456Z,96911.59
2019-05-25T12:28:22.044Z,96909.10
2019-05-25T12:30:49.514Z,96915.70
2019-05-25T12:33:17.312Z,96912.89
2019-05-25T12:35:45.349Z,96909.27
2019-05-25T12:38:12.246Z,96907.73
2019-05-25T12:40:52.847Z,96906.17
2019-05-25T12:43:07.434Z,96906.45
2019-05-25T12:45:35.000Z,96899.92
2019-05-25T12:48:02.687Z,96908.37
2019-05-25T12:50:30.160Z,96912.08
2019-05-25T12:52:57.732Z,96911.14
2019-05-25T12:55:25.964Z,96909.66
2019-05-25T12:57:53.427Z,96907.45
2019-05-25T13:00:22.160Z,96912.52
2019-05-25T13:02:49.770Z,96910.88
2019-05-25T13:05:31.165Z,96915.34
2019-05-25T13:07:45.028Z,96909.39
2019-05-25T13:10:12.578Z,96906.41
2019-05-25T13:12:40.106Z,96916.17
2019-05-25T13:15:07.575Z,96904.03
2019-05-25T13:17:35.065Z,96904.05
2019-05-25T13:20:02.607Z,96905.61
2019-05-25T13:22:30.063Z,96906.98
2019-05-25T13:24:57.554Z,96910.59
2019-05-25T13:27:25.079Z,96906.61
2019-05-25T13:29:52.531Z,96898.03
2019-05-25T13:32:20.020Z,96905.48
2019-05-25T13:34:47.715Z,96905.75
2019-05-25T13:37:17.722Z,96906.14
2019-05-25T13:39:42.762Z,96901.91
2019-05-25T13:42:10.251Z,96907.14
2019-05-25T13:44:37.915Z,96901.06
2019-05-25T13:47:05.484Z,96893.66
2019-05-25T13:49:33.436Z,96899.51
2019-05-25T13:52:00.898Z,96895.43
2019-05-25T13:54:28.402Z,96894.28
2019-05-25T13:56:55.877Z,96893.45
2019-05-25T13:59:23.342Z,96893.77
2019-05-25T14:01:50.830Z,96890.33
2019-05-25T14:04:18.305Z,96894.02
2019-05-25T14:06:45.816Z,96892.22
2019-05-25T14:09:15.851Z,96900.36
2019-05-25T14:11:40.899Z,96897.05
2019-05-25T14:14:08.370Z,96902.52
2019-05-25T14:16:35.837Z,96904.03
2019-05-25T14:19:03.346Z,96906.64
2019-05-25T14:21:30.865Z,96909.11
2019-05-25T14:23:58.354Z,96917.73
2019-05-25T14:26:26.009Z,96916.84
2019-05-25T14:28:53.590Z,96927.34
2019-05-25T14:31:21.060Z,96920.02
2019-05-25T14:33:49.490Z,96936.50
2019-05-25T14:36:17.485Z,96934.75
2019-05-25T14:38:44.979Z,96939.06
2019-05-25T14:41:12.564Z,96930.50
2019-05-25T14:43:40.031Z,96946.95
2019-05-25T14:46:07.514Z,96950.16
2019-05-25T14:48:34.501Z,96948.91
2019-05-25T14:51:01.561Z,96958.32
2019-05-25T14:53:28.571Z,96962.55
2019-05-25T14:55:55.627Z,96971.86
2019-05-25T14:58:23.076Z,96983.73
2019-05-25T15:00:50.557Z,96984.97
2019-05-25T15:03:18.151Z,96984.40
2019-05-25T15:05:45.767Z,96978.80
2019-05-25T15:08:13.439Z,96986.25
2019-05-25T15:10:40.985Z,96986.48
2019-05-25T15:13:08.442Z,96987.91
2019-05-25T15:15:36.067Z,96987.59
2019-05-25T15:18:03.539Z,96997.11
2019-05-25T15:20:31.071Z,97000.69
2019-05-25T15:22:58.636Z,96999.31
2019-05-25T15:25:26.116Z,97009.64
2019-05-25T15:27:53.599Z,97007.44
2019-05-25T15:30:21.096Z,97014.30
2019-05-25T15:32:48.591Z,97015.89
2019-05-25T15:35:19.819Z,97014.79
2019-05-25T15:37:43.584Z,97022.23
2019-05-25T15:40:11.090Z,97010.92
2019-05-25T15:42:38.559Z,97010.09
2019-05-25T15:45:06.103Z,97009.69
2019-05-25T15:47:33.568Z,97008.94
2019-05-25T15:50:01.104Z,97012.91
2019-05-25T15:52:28.683Z,97008.52
2019-05-25T15:54:56.165Z,97015.92
2019-05-25T15:57:23.629Z,97035.52
2019-05-25T15:59:51.767Z,97046.56
2019-05-25T16:02:33.881Z,97058.12
2019-05-25T16:04:46.610Z,97069.56
2019-05-25T16:07:14.108Z,97073.76
2019-05-25T16:09:41.641Z,97071.44
2019-05-25T16:12:09.135Z,97075.16
2019-05-25T16:14:36.695Z,97083.91
2019-05-25T16:17:04.166Z,97091.16
2019-05-25T16:19:31.670Z,97085.99
2019-05-25T16:21:59.109Z,97077.88
2019-05-25T16:24:26.576Z,97068.16
2019-05-25T16:26:54.046Z,97083.30
2019-05-25T16:29:21.523Z,97083.52
2019-05-25T16:31:48.975Z,97087.92
2019-05-25T16:34:16.466Z,97081.99
2019-05-25T16:36:43.957Z,97077.85
2019-05-25T16:39:11.514Z,97079.34
2019-05-25T16:41:38.971Z,97071.34
2019-05-25T16:44:06.452Z,97080.07
2019-05-25T16:46:34.021Z,97087.52
2019-05-25T16:49:01.486Z,97083.27
2019-05-25T16:51:28.939Z,97083.25
2019-05-25T16:53:56.436Z,97090.89
2019-05-25T16:56:23.919Z,97099.62
2019-05-25T16:58:51.404Z,97107.16
2019-05-25T17:01:18.863Z,97111.61
2019-05-25T17:03:46.406Z,97112.59
2019-05-25T17:06:13.852Z,97113.42
2019-05-25T17:08:41.392Z,97112.72
2019-05-25T17:11:08.923Z,97119.42
2019-05-25T17:13:36.433Z,97118.92
2019-05-25T17:16:03.953Z,97128.06
2019-05-25T17:18:31.428Z,97130.17
2019-05-25T17:20:58.912Z,97131.50
2019-05-25T17:23:26.402Z,97131.70
2019-05-25T17:25:53.843Z,97125.57
2019-05-25T17:28:21.461Z,97118.31
2019-05-25T17:30:48.935Z,97119.75
2019-05-25T17:33:16.484Z,97118.58
2019-05-25T17:35:44.013Z,97119.92
2019-05-25T17:38:11.475Z,97120.75
2019-05-25T17:40:38.924Z,97120.00
2019-05-25T17:43:06.427Z,97117.34
2019-05-25T17:45:33.913Z,97118.80
2019-05-25T17:48:01.375Z,97119.19
2019-05-25T17:50:28.935Z,97123.28
2019-05-25T17:52:56.459Z,97117.36
2019-05-25T17:55:23.966Z,97114.25
2019-05-25T17:57:51.579Z,97119.63
2019-05-25T18:00:35.932Z,97109.61
2019-05-25T18:03:03.397Z,97107.91
2019-05-25T18:05:30.918Z,97110.02
2019-05-25T18:07:58.410Z,97118.39
2019-05-25T18:10:25.908Z,97110.23
2019-05-25T18:12:53.642Z,97110.44
2019-05-25T18:15:21.147Z,97118.97
2019-05-25T18:17:48.670Z,97131.00
2019-05-25T18:20:16.176Z,97135.49
2019-05-25T18:22:43.722Z,97134.08
2019-05-25T18:25:11.213Z,97137.92
2019-05-25T18:27:38.708Z,97139.47
2019-05-25T18:30:06.178Z,97140.19
2019-05-25T18:32:33.752Z,97134.70
2019-05-25T18:35:01.453Z,97133.09
2019-05-25T18:37:29.078Z,97128.45
2019-05-25T18:39:56.550Z,97124.77
2019-05-25T18:42:24.042Z,97119.94
2019-05-25T18:44:51.498Z,97114.71
2019-05-25T18:47:18.983Z,97115.70
2019-05-25T18:49:47.007Z,97117.65
2019-05-25T18:52:14.531Z,97114.91
2019-05-25T18:54:42.033Z,97119.30
2019-05-25T18:57:09.834Z,97117.97
2019-05-25T18:59:37.335Z,97115.76
2019-05-25T19:02:05.404Z,97120.64
2019-05-25T19:04:45.299Z,97128.37
2019-05-25T19:07:00.687Z,97126.64
2019-05-25T19:09:28.341Z,97138.44
2019-05-25T19:11:55.816Z,97143.54
2019-05-25T19:14:23.439Z,97147.80
2019-05-25T19:16:50.923Z,97164.80
2019-05-25T19:19:18.652Z,97181.91
2019-05-25T19:21:46.169Z,97186.56
2019-05-25T19:24:13.638Z,97186.52
2019-05-25T19:26:41.111Z,97182.36
2019-05-25T19:29:08.625Z,97176.66
2019-05-25T19:34:08.864Z,97181.63
2019-05-25T19:36:36.320Z,97179.91
2019-05-25T19:39:03.830Z,97190.71
2019-05-25T19:41:31.273Z,97193.77
2019-05-25T19:43:58.819Z,97203.11
2019-05-25T19:46:26.318Z,97202.08
2019-05-25T19:48:53.826Z,97219.23
2019-05-25T19:51:21.318Z,97225.58
2019-05-25T19:53:48.807Z,97233.42
2019-05-25T19:56:16.280Z,97244.44
2019-05-25T19:58:43.746Z,97241.38
2019-05-25T20:01:11.216Z,97248.66
2019-05-25T20:03:38.766Z,97247.04
2019-05-25T20:06:06.227Z,97254.98
2019-05-25T20:08:34.466Z,97252.81
2019-05-25T20:11:01.954Z,97252.36
2019-05-25T20:13:29.470Z,97253.48
2019-05-25T20:15:57.027Z,97265.80
2019-05-25T20:18:24.523Z,97266.72
2019-05-25T20:20:51.987Z,97277.03
2019-05-25T20:23:19.522Z,97280.09
2019-05-25T20:25:47.305Z,97286.92
2019-05-25T20:28:16.338Z,97291.34
2019-05-25T20:30:43.892Z,97292.33
2019-05-25T20:33:11.980Z,97295.57
2019-05-25T20:35:39.498Z,97300.59
2019-05-25T20:38:07.412Z,97296.37
2019-05-25T20:40:34.918Z,97294.86
2019-05-25T20:43:02.516Z,97295.00
2019-05-25T20:45:30.020Z,97293.98
2019-05-25T20:47:57.502Z,97297.63
2019-05-25T20:50:25.253Z,97300.77
2019-05-25T20:52:52.803Z,97301.14
2019-05-25T20:55:20.295Z,97297.19
2019-05-25T20:57:47.853Z,97295.66
2019-05-25T21:00:15.408Z,97303.84
2019-05-25T21:02:42.970Z,97300.27
2019-05-25T21:05:10.558Z,97299.97
2019-05-25T21:07:38.223Z,97301.91
2019-05-25T21:10:07.815Z,97302.63
2019-05-25T21:12:35.330Z,97300.20
2019-05-25T21:15:02.922Z,97297.66
2019-05-25T21:17:30.463Z,97295.06
2019-05-25T21:19:58.148Z,97304.48
2019-05-25T21:22:25.667Z,97303.27
2019-05-25T21:24:53.228Z,97304.88
2019-05-25T21:27:20.799Z,97302.86
2019-05-25T21:29:48.311Z,97303.80
2019-05-25T21:34:49.141Z,97304.39
2019-05-25T21:37:16.638Z,97302.75
2019-05-25T21:39:44.141Z,97306.27
2019-05-25T21:42:11.672Z,97312.41
2019-05-25T21:44:39.165Z,97311.77
2019-05-25T21:47:06.670Z,97311.17
2019-05-25T21:49:34.122Z,97307.88
2019-05-25T21:52:01.602Z,97306.52
2019-05-25T21:54:29.085Z,97308.81
2019-05-25T21:56:57.074Z,97304.08
2019-05-25T21:59:24.524Z,97302.55
2019-05-25T22:01:52.025Z,97309.25
2019-05-25T22:04:19.624Z,97309.78
2019-05-25T22:06:47.182Z,97304.82
2019-05-25T22:09:14.668Z,97310.37
2019-05-25T22:11:42.138Z,97304.91
2019-05-25T22:14:09.634Z,97303.37
2019-05-25T22:16:37.128Z,97298.36
2019-05-25T22:19:04.590Z,97302.81
2019-05-25T22:21:32.171Z,97303.33
2019-05-25T22:23:59.643Z,97301.03
2019-05-25T22:26:27.219Z,97298.48
2019-05-25T22:28:54.772Z,97304.31
2019-05-25T22:31:22.294Z,97298.13
2019-05-25T22:33:49.777Z,97297.03
2019-05-25T22:36:17.357Z,97298.59
2019-05-25T22:38:44.929Z,97293.73
2019-05-25T22:41:12.441Z,97295.81
2019-05-25T22:43:39.905Z,97293.53
2019-05-25T22:46:07.390Z,97299.19
2019-05-25T22:48:34.917Z,97293.88
2019-05-25T22:51:02.451Z,97289.25
2019-05-25T22:53:29.941Z,97283.19
2019-05-25T22:55:57.504Z,97280.22
2019-05-25T22:58:24.960Z,97274.31
2019-05-25T23:00:52.406Z,97277.75
2019-05-25T23:03:19.860Z,97283.59
2019-05-25T23:05:47.375Z,97286.48
2019-05-25T23:08:15.157Z,97284.68
2019-05-25T23:10:42.611Z,97276.90
2019-05-25T23:13:10.050Z,97274.09
2019-05-25T23:15:37.607Z,97272.17
2019-05-25T23:18:05.756Z,97269.39
2019-05-25T23:20:36.380Z,97263.03
2019-05-25T23:23:00.779Z,97255.00
2019-05-25T23:25:28.267Z,97257.97
2019-05-25T23:27:55.747Z,97247.44
2019-05-25T23:30:23.589Z,97253.08
2019-05-25T23:32:51.189Z,97250.55
2019-05-25T23:35:18.670Z,97243.90
2019-05-25T23:37:46.269Z,97243.39
2019-05-25T23:40:13.788Z,97240.19
2019-05-25T23:42:41.237Z,97241.48
2019-05-25T23:45:08.736Z,97242.63
2019-05-25T23:47:36.231Z,97235.21
2019-05-25T23:50:05.581Z,97231.47
2019-05-25T23:52:33.035Z,97224.29
2019-05-25T23:55:04.189Z,97220.64
2019-05-25T23:57:28.041Z,97220.57
2019-05-25T23:59:55.651Z,97217.63
